sensor_id;sensor_type;location;lat;lon;timestamp;temperature;humidity
10296;DHT22;5193;51.032;6.356;2024-02-26T00:00:43;6.40;99.90
10296;DHT22;5193;51.032;6.356;2024-02-26T00:03:09;6.30;99.90
10296;DHT22;5193;51.032;6.356;2024-02-26T00:05:34;6.40;99.90
10296;DHT22;5193;51.032;6.356;2024-02-26T00:08:00;6.40;99.90
10296;DHT22;5193;51.032;6.356;2024-02-26T00:10:27;6.40;99.90
10296;DHT22;5193;51.032;6.356;2024-02-26T00:12:53;6.40;99.90
10296;DHT22;5193;51.032;6.356;2024-02-26T00:15:19;6.40;99.90
10296;DHT22;5193;51.032;6.356;2024-02-26T00:17:45;6.40;99.90
10296;DHT22;5193;51.032;6.356;2024-02-26T00:20:10;6.40;99.90
10296;DHT22;5193;51.032;6.356;2024-02-26T00:22:36;6.30;99.90
10296;DHT22;5193;51.032;6.356;2024-02-26T00:25:03;6.30;99.90
10296;DHT22;5193;51.032;6.356;2024-02-26T00:27:29;6.30;99.90
10296;DHT22;5193;51.032;6.356;2024-02-26T00:29:55;6.30;99.90
10296;DHT22;5193;51.032;6.356;2024-02-26T00:32:20;6.30;99.90
10296;DHT22;5193;51.032;6.356;2024-02-26T00:34:46;6.40;99.90
10296;DHT22;5193;51.032;6.356;2024-02-26T00:37:13;6.40;99.90
10296;DHT22;5193;51.032;6.356;2024-02-26T00:39:38;6.40;99.90
10296;DHT22;5193;51.032;6.356;2024-02-26T00:42:06;6.40;99.90
10296;DHT22;5193;51.032;6.356;2024-02-26T00:44:31;6.40;99.90
10296;DHT22;5193;51.032;6.356;2024-02-26T00:46:57;6.40;99.90
10296;DHT22;5193;51.032;6.356;2024-02-26T00:49:24;6.40;99.90
10296;DHT22;5193;51.032;6.356;2024-02-26T00:51:50;6.40;99.90
10296;DHT22;5193;51.032;6.356;2024-02-26T00:54:15;6.30;99.90
10296;DHT22;5193;51.032;6.356;2024-02-26T00:56:41;6.40;99.90
10296;DHT22;5193;51.032;6.356;2024-02-26T00:59:06;6.30;99.90
10296;DHT22;5193;51.032;6.356;2024-02-26T01:01:32;6.30;99.90
10296;DHT22;5193;51.032;6.356;2024-02-26T01:03:57;6.30;99.90
10296;DHT22;5193;51.032;6.356;2024-02-26T01:06:26;6.30;99.90
10296;DHT22;5193;51.032;6.356;2024-02-26T01:08:53;6.30;99.90
10296;DHT22;5193;51.032;6.356;2024-02-26T01:11:19;6.30;99.90
10296;DHT22;5193;51.032;6.356;2024-02-26T01:13:44;6.30;99.90
10296;DHT22;5193;51.032;6.356;2024-02-26T01:16:10;6.30;99.90
10296;DHT22;5193;51.032;6.356;2024-02-26T01:18:36;6.30;99.90
10296;DHT22;5193;51.032;6.356;2024-02-26T01:21:04;6.30;99.90
10296;DHT22;5193;51.032;6.356;2024-02-26T01:23:34;6.30;99.90
10296;DHT22;5193;51.032;6.356;2024-02-26T01:26:03;6.30;99.90
10296;DHT22;5193;51.032;6.356;2024-02-26T01:28:30;6.30;99.90
10296;DHT22;5193;51.032;6.356;2024-02-26T01:30:55;6.30;99.90
10296;DHT22;5193;51.032;6.356;2024-02-26T01:33:21;6.30;99.90
10296;DHT22;5193;51.032;6.356;2024-02-26T01:35:47;6.30;99.90
10296;DHT22;5193;51.032;6.356;2024-02-26T01:38:12;6.30;99.90
10296;DHT22;5193;51.032;6.356;2024-02-26T01:40:41;6.30;99.90
10296;DHT22;5193;51.032;6.356;2024-02-26T01:43:07;6.30;99.90
10296;DHT22;5193;51.032;6.356;2024-02-26T01:45:32;6.30;99.90
10296;DHT22;5193;51.032;6.356;2024-02-26T01:48:00;6.30;99.90
10296;DHT22;5193;51.032;6.356;2024-02-26T01:50:26;6.30;99.90
10296;DHT22;5193;51.032;6.356;2024-02-26T01:52:53;6.30;99.90
10296;DHT22;5193;51.032;6.356;2024-02-26T01:55:20;6.30;99.90
10296;DHT22;5193;51.032;6.356;2024-02-26T01:57:49;6.30;99.90
10296;DHT22;5193;51.032;6.356;2024-02-26T02:00:17;6.20;99.90
10296;DHT22;5193;51.032;6.356;2024-02-26T02:02:44;6.20;99.90
10296;DHT22;5193;51.032;6.356;2024-02-26T02:05:12;6.20;99.90
10296;DHT22;5193;51.032;6.356;2024-02-26T02:07:41;6.20;99.90
10296;DHT22;5193;51.032;6.356;2024-02-26T02:10:08;6.20;99.90
10296;DHT22;5193;51.032;6.356;2024-02-26T02:12:35;6.20;99.90
10296;DHT22;5193;51.032;6.356;2024-02-26T02:15:05;6.20;99.90
10296;DHT22;5193;51.032;6.356;2024-02-26T02:17:31;6.20;99.90
10296;DHT22;5193;51.032;6.356;2024-02-26T02:19:59;6.10;99.90
10296;DHT22;5193;51.032;6.356;2024-02-26T02:22:28;6.20;99.90
10296;DHT22;5193;51.032;6.356;2024-02-26T02:24:54;6.10;99.90
10296;DHT22;5193;51.032;6.356;2024-02-26T02:27:20;6.10;99.90
10296;DHT22;5193;51.032;6.356;2024-02-26T02:29:48;6.10;99.90
10296;DHT22;5193;51.032;6.356;2024-02-26T02:32:14;6.10;99.90
10296;DHT22;5193;51.032;6.356;2024-02-26T02:34:45;6.10;99.90
10296;DHT22;5193;51.032;6.356;2024-02-26T02:37:14;6.10;99.90
10296;DHT22;5193;51.032;6.356;2024-02-26T02:39:43;6.10;99.90
10296;DHT22;5193;51.032;6.356;2024-02-26T02:42:13;6.10;99.90
10296;DHT22;5193;51.032;6.356;2024-02-26T02:44:40;6.10;99.90
10296;DHT22;5193;51.032;6.356;2024-02-26T02:47:05;6.00;99.90
10296;DHT22;5193;51.032;6.356;2024-02-26T02:49:31;6.10;99.90
10296;DHT22;5193;51.032;6.356;2024-02-26T02:51:56;6.10;99.90
10296;DHT22;5193;51.032;6.356;2024-02-26T02:54:23;6.10;99.90
10296;DHT22;5193;51.032;6.356;2024-02-26T02:56:55;6.10;99.90
10296;DHT22;5193;51.032;6.356;2024-02-26T02:59:20;6.10;99.90
10296;DHT22;5193;51.032;6.356;2024-02-26T03:01:46;6.00;99.90
10296;DHT22;5193;51.032;6.356;2024-02-26T03:04:14;6.10;99.90
10296;DHT22;5193;51.032;6.356;2024-02-26T03:06:40;6.10;99.90
10296;DHT22;5193;51.032;6.356;2024-02-26T03:09:07;6.10;99.90
10296;DHT22;5193;51.032;6.356;2024-02-26T03:11:33;6.10;99.90
10296;DHT22;5193;51.032;6.356;2024-02-26T03:13:58;6.10;99.90
10296;DHT22;5193;51.032;6.356;2024-02-26T03:16:36;6.00;99.90
10296;DHT22;5193;51.032;6.356;2024-02-26T03:19:02;6.10;99.90
10296;DHT22;5193;51.032;6.356;2024-02-26T03:21:28;6.10;99.90
10296;DHT22;5193;51.032;6.356;2024-02-26T03:23:54;6.10;99.90
10296;DHT22;5193;51.032;6.356;2024-02-26T03:26:20;6.10;99.90
10296;DHT22;5193;51.032;6.356;2024-02-26T03:28:47;6.10;99.90
10296;DHT22;5193;51.032;6.356;2024-02-26T03:31:12;6.10;99.90
10296;DHT22;5193;51.032;6.356;2024-02-26T03:33:38;6.10;99.90
10296;DHT22;5193;51.032;6.356;2024-02-26T03:36:05;6.10;99.90
10296;DHT22;5193;51.032;6.356;2024-02-26T03:38:33;6.00;99.90
10296;DHT22;5193;51.032;6.356;2024-02-26T03:41:02;6.10;99.90
10296;DHT22;5193;51.032;6.356;2024-02-26T03:43:27;6.10;99.90
10296;DHT22;5193;51.032;6.356;2024-02-26T03:45:58;6.10;99.90
10296;DHT22;5193;51.032;6.356;2024-02-26T03:48:23;6.00;99.90
10296;DHT22;5193;51.032;6.356;2024-02-26T03:50:49;6.00;99.90
10296;DHT22;5193;51.032;6.356;2024-02-26T03:53:15;6.00;99.90
10296;DHT22;5193;51.032;6.356;2024-02-26T03:55:41;6.00;99.90
10296;DHT22;5193;51.032;6.356;2024-02-26T03:58:15;6.00;99.90
10296;DHT22;5193;51.032;6.356;2024-02-26T04:00:42;6.00;99.90
10296;DHT22;5193;51.032;6.356;2024-02-26T04:03:08;6.00;99.90
10296;DHT22;5193;51.032;6.356;2024-02-26T04:05:33;6.00;99.90
10296;DHT22;5193;51.032;6.356;2024-02-26T04:08:00;6.00;99.90
10296;DHT22;5193;51.032;6.356;2024-02-26T04:10:26;6.00;99.90
10296;DHT22;5193;51.032;6.356;2024-02-26T04:12:58;5.90;99.90
10296;DHT22;5193;51.032;6.356;2024-02-26T04:15:23;6.00;99.90
10296;DHT22;5193;51.032;6.356;2024-02-26T04:17:52;6.00;99.90
10296;DHT22;5193;51.032;6.356;2024-02-26T04:20:18;6.00;99.90
10296;DHT22;5193;51.032;6.356;2024-02-26T04:22:44;6.00;99.90
10296;DHT22;5193;51.032;6.356;2024-02-26T04:25:13;6.00;99.90
10296;DHT22;5193;51.032;6.356;2024-02-26T04:27:39;6.00;99.90
10296;DHT22;5193;51.032;6.356;2024-02-26T04:30:06;6.00;99.90
10296;DHT22;5193;51.032;6.356;2024-02-26T04:32:32;6.00;99.90
10296;DHT22;5193;51.032;6.356;2024-02-26T04:34:58;6.00;99.90
10296;DHT22;5193;51.032;6.356;2024-02-26T04:37:24;6.00;99.90
10296;DHT22;5193;51.032;6.356;2024-02-26T04:39:52;6.00;99.90
10296;DHT22;5193;51.032;6.356;2024-02-26T04:42:18;5.90;99.90
10296;DHT22;5193;51.032;6.356;2024-02-26T04:44:44;6.00;99.90
10296;DHT22;5193;51.032;6.356;2024-02-26T04:47:09;5.90;99.90
10296;DHT22;5193;51.032;6.356;2024-02-26T04:49:36;5.90;99.90
10296;DHT22;5193;51.032;6.356;2024-02-26T04:52:01;5.90;99.90
10296;DHT22;5193;51.032;6.356;2024-02-26T04:54:29;5.90;99.90
10296;DHT22;5193;51.032;6.356;2024-02-26T04:56:55;5.90;99.90
10296;DHT22;5193;51.032;6.356;2024-02-26T04:59:21;5.90;99.90
10296;DHT22;5193;51.032;6.356;2024-02-26T05:01:47;5.90;99.90
10296;DHT22;5193;51.032;6.356;2024-02-26T05:04:13;5.90;99.90
10296;DHT22;5193;51.032;6.356;2024-02-26T05:06:39;5.90;99.90
10296;DHT22;5193;51.032;6.356;2024-02-26T05:09:08;5.90;99.90
10296;DHT22;5193;51.032;6.356;2024-02-26T05:11:34;6.10;99.90
10296;DHT22;5193;51.032;6.356;2024-02-26T05:14:00;5.90;99.90
10296;DHT22;5193;51.032;6.356;2024-02-26T05:16:26;5.90;99.90
10296;DHT22;5193;51.032;6.356;2024-02-26T05:18:53;5.90;99.90
10296;DHT22;5193;51.032;6.356;2024-02-26T05:21:18;5.90;99.90
10296;DHT22;5193;51.032;6.356;2024-02-26T05:23:44;5.80;99.90
10296;DHT22;5193;51.032;6.356;2024-02-26T05:26:22;5.90;99.90
10296;DHT22;5193;51.032;6.356;2024-02-26T05:28:48;5.90;99.90
10296;DHT22;5193;51.032;6.356;2024-02-26T05:31:15;5.90;99.90
10296;DHT22;5193;51.032;6.356;2024-02-26T05:33:41;5.90;99.90
10296;DHT22;5193;51.032;6.356;2024-02-26T05:36:22;5.80;99.90
10296;DHT22;5193;51.032;6.356;2024-02-26T05:38:48;5.80;99.90
10296;DHT22;5193;51.032;6.356;2024-02-26T05:41:15;5.80;99.90
10296;DHT22;5193;51.032;6.356;2024-02-26T05:43:41;5.80;99.90
10296;DHT22;5193;51.032;6.356;2024-02-26T05:46:07;5.80;99.90
10296;DHT22;5193;51.032;6.356;2024-02-26T05:48:36;5.80;99.90
10296;DHT22;5193;51.032;6.356;2024-02-26T05:51:01;5.80;99.90
10296;DHT22;5193;51.032;6.356;2024-02-26T05:53:27;5.80;99.90
10296;DHT22;5193;51.032;6.356;2024-02-26T05:55:53;5.80;99.90
10296;DHT22;5193;51.032;6.356;2024-02-26T05:58:18;5.70;99.90
10296;DHT22;5193;51.032;6.356;2024-02-26T06:00:44;5.70;99.90
10296;DHT22;5193;51.032;6.356;2024-02-26T06:03:13;5.70;99.90
10296;DHT22;5193;51.032;6.356;2024-02-26T06:05:38;5.70;99.90
10296;DHT22;5193;51.032;6.356;2024-02-26T06:08:04;5.70;99.90
10296;DHT22;5193;51.032;6.356;2024-02-26T06:10:31;5.70;99.90
10296;DHT22;5193;51.032;6.356;2024-02-26T06:12:56;5.70;99.90
10296;DHT22;5193;51.032;6.356;2024-02-26T06:15:22;5.70;99.90
10296;DHT22;5193;51.032;6.356;2024-02-26T06:17:48;5.60;99.90
10296;DHT22;5193;51.032;6.356;2024-02-26T06:20:14;5.60;99.90
10296;DHT22;5193;51.032;6.356;2024-02-26T06:22:42;5.60;99.90
10296;DHT22;5193;51.032;6.356;2024-02-26T06:25:08;5.60;99.90
10296;DHT22;5193;51.032;6.356;2024-02-26T06:27:37;5.60;99.90
10296;DHT22;5193;51.032;6.356;2024-02-26T06:30:06;5.60;99.90
10296;DHT22;5193;51.032;6.356;2024-02-26T06:32:35;5.60;99.90
10296;DHT22;5193;51.032;6.356;2024-02-26T06:35:01;5.60;99.90
10296;DHT22;5193;51.032;6.356;2024-02-26T06:37:27;5.60;99.90
10296;DHT22;5193;51.032;6.356;2024-02-26T06:39:53;5.60;99.90
10296;DHT22;5193;51.032;6.356;2024-02-26T06:42:20;5.60;99.90
10296;DHT22;5193;51.032;6.356;2024-02-26T06:44:49;5.60;99.90
10296;DHT22;5193;51.032;6.356;2024-02-26T06:47:18;5.60;99.90
10296;DHT22;5193;51.032;6.356;2024-02-26T06:49:44;5.50;99.90
10296;DHT22;5193;51.032;6.356;2024-02-26T06:52:11;5.50;99.90
10296;DHT22;5193;51.032;6.356;2024-02-26T06:54:37;5.50;99.90
10296;DHT22;5193;51.032;6.356;2024-02-26T06:57:05;5.50;99.90
10296;DHT22;5193;51.032;6.356;2024-02-26T06:59:36;5.50;99.90
10296;DHT22;5193;51.032;6.356;2024-02-26T07:02:02;5.40;99.90
10296;DHT22;5193;51.032;6.356;2024-02-26T07:04:28;5.50;99.90
10296;DHT22;5193;51.032;6.356;2024-02-26T07:06:53;5.50;99.90
10296;DHT22;5193;51.032;6.356;2024-02-26T07:09:19;5.40;99.90
10296;DHT22;5193;51.032;6.356;2024-02-26T07:11:51;5.40;99.90
10296;DHT22;5193;51.032;6.356;2024-02-26T07:14:19;5.40;99.90
10296;DHT22;5193;51.032;6.356;2024-02-26T07:16:44;5.40;99.90
10296;DHT22;5193;51.032;6.356;2024-02-26T07:19:11;5.40;99.90
10296;DHT22;5193;51.032;6.356;2024-02-26T07:21:37;5.40;99.90
10296;DHT22;5193;51.032;6.356;2024-02-26T07:24:04;5.40;99.90
10296;DHT22;5193;51.032;6.356;2024-02-26T07:26:37;5.40;99.90
10296;DHT22;5193;51.032;6.356;2024-02-26T07:29:04;5.40;99.90
10296;DHT22;5193;51.032;6.356;2024-02-26T07:31:30;5.40;99.90
10296;DHT22;5193;51.032;6.356;2024-02-26T07:33:56;5.50;99.90
10296;DHT22;5193;51.032;6.356;2024-02-26T07:36:22;5.50;99.90
10296;DHT22;5193;51.032;6.356;2024-02-26T07:38:50;5.50;99.90
10296;DHT22;5193;51.032;6.356;2024-02-26T07:41:17;5.50;99.90
10296;DHT22;5193;51.032;6.356;2024-02-26T07:43:43;5.50;99.90
10296;DHT22;5193;51.032;6.356;2024-02-26T07:46:11;5.50;99.90
10296;DHT22;5193;51.032;6.356;2024-02-26T07:48:38;5.50;99.90
10296;DHT22;5193;51.032;6.356;2024-02-26T07:51:07;5.50;99.90
10296;DHT22;5193;51.032;6.356;2024-02-26T07:53:37;5.50;99.90
10296;DHT22;5193;51.032;6.356;2024-02-26T07:56:02;5.50;99.90
10296;DHT22;5193;51.032;6.356;2024-02-26T07:58:28;5.50;99.90
10296;DHT22;5193;51.032;6.356;2024-02-26T08:00:54;5.50;99.90
10296;DHT22;5193;51.032;6.356;2024-02-26T08:03:19;5.60;99.90
10296;DHT22;5193;51.032;6.356;2024-02-26T08:05:45;5.50;99.90
10296;DHT22;5193;51.032;6.356;2024-02-26T08:08:14;5.50;99.90
10296;DHT22;5193;51.032;6.356;2024-02-26T08:10:40;5.60;99.90
10296;DHT22;5193;51.032;6.356;2024-02-26T08:13:06;5.60;99.90
10296;DHT22;5193;51.032;6.356;2024-02-26T08:15:32;5.60;99.90
10296;DHT22;5193;51.032;6.356;2024-02-26T08:18:18;5.60;99.90
10296;DHT22;5193;51.032;6.356;2024-02-26T08:20:47;5.60;99.90
10296;DHT22;5193;51.032;6.356;2024-02-26T08:23:17;5.60;99.90
10296;DHT22;5193;51.032;6.356;2024-02-26T08:25:43;5.60;99.90
10296;DHT22;5193;51.032;6.356;2024-02-26T08:28:08;5.60;99.90
10296;DHT22;5193;51.032;6.356;2024-02-26T08:30:37;5.60;99.90
10296;DHT22;5193;51.032;6.356;2024-02-26T08:33:09;5.60;99.90
10296;DHT22;5193;51.032;6.356;2024-02-26T08:35:36;5.60;99.90
10296;DHT22;5193;51.032;6.356;2024-02-26T08:38:01;5.60;99.90
10296;DHT22;5193;51.032;6.356;2024-02-26T08:40:28;5.60;99.90
10296;DHT22;5193;51.032;6.356;2024-02-26T08:42:55;5.60;99.90
10296;DHT22;5193;51.032;6.356;2024-02-26T08:45:21;5.60;99.90
10296;DHT22;5193;51.032;6.356;2024-02-26T08:47:48;5.60;99.90
10296;DHT22;5193;51.032;6.356;2024-02-26T08:50:14;5.60;99.90
10296;DHT22;5193;51.032;6.356;2024-02-26T08:52:41;5.60;99.90
10296;DHT22;5193;51.032;6.356;2024-02-26T08:55:07;5.60;99.90
10296;DHT22;5193;51.032;6.356;2024-02-26T08:57:35;5.60;99.90
10296;DHT22;5193;51.032;6.356;2024-02-26T09:00:01;5.60;99.90
10296;DHT22;5193;51.032;6.356;2024-02-26T09:02:27;5.60;99.90
10296;DHT22;5193;51.032;6.356;2024-02-26T09:04:54;5.60;99.90
10296;DHT22;5193;51.032;6.356;2024-02-26T09:07:21;5.60;99.90
10296;DHT22;5193;51.032;6.356;2024-02-26T09:09:46;5.60;99.90
10296;DHT22;5193;51.032;6.356;2024-02-26T09:12:12;5.60;99.90
10296;DHT22;5193;51.032;6.356;2024-02-26T09:14:38;5.70;99.90
10296;DHT22;5193;51.032;6.356;2024-02-26T09:17:06;5.70;99.90
10296;DHT22;5193;51.032;6.356;2024-02-26T09:19:33;5.70;99.90
10296;DHT22;5193;51.032;6.356;2024-02-26T09:22:00;5.70;99.90
10296;DHT22;5193;51.032;6.356;2024-02-26T09:24:26;5.70;99.90
10296;DHT22;5193;51.032;6.356;2024-02-26T09:26:52;5.70;99.90
10296;DHT22;5193;51.032;6.356;2024-02-26T09:29:18;5.70;99.90
10296;DHT22;5193;51.032;6.356;2024-02-26T09:31:44;5.70;99.90
10296;DHT22;5193;51.032;6.356;2024-02-26T09:34:13;5.70;99.90
10296;DHT22;5193;51.032;6.356;2024-02-26T09:36:38;5.70;99.90
10296;DHT22;5193;51.032;6.356;2024-02-26T09:39:04;5.70;99.90
10296;DHT22;5193;51.032;6.356;2024-02-26T09:41:30;5.80;99.90
10296;DHT22;5193;51.032;6.356;2024-02-26T09:43:57;5.80;99.90
10296;DHT22;5193;51.032;6.356;2024-02-26T09:46:25;5.80;99.90
10296;DHT22;5193;51.032;6.356;2024-02-26T09:48:51;5.80;99.90
10296;DHT22;5193;51.032;6.356;2024-02-26T09:51:17;5.80;99.90
10296;DHT22;5193;51.032;6.356;2024-02-26T09:53:45;5.80;99.90
10296;DHT22;5193;51.032;6.356;2024-02-26T09:56:13;5.90;99.90
10296;DHT22;5193;51.032;6.356;2024-02-26T09:58:42;5.90;99.90
10296;DHT22;5193;51.032;6.356;2024-02-26T10:01:14;5.90;99.90
10296;DHT22;5193;51.032;6.356;2024-02-26T10:03:42;5.90;99.90
10296;DHT22;5193;51.032;6.356;2024-02-26T10:06:10;5.90;99.90
10296;DHT22;5193;51.032;6.356;2024-02-26T10:08:36;5.90;99.90
10296;DHT22;5193;51.032;6.356;2024-02-26T10:11:03;5.90;99.90
10296;DHT22;5193;51.032;6.356;2024-02-26T10:13:29;5.90;99.90
10296;DHT22;5193;51.032;6.356;2024-02-26T10:15:55;5.90;99.90
10296;DHT22;5193;51.032;6.356;2024-02-26T10:18:22;6.00;99.90
10296;DHT22;5193;51.032;6.356;2024-02-26T10:23:18;5.90;99.90
10296;DHT22;5193;51.032;6.356;2024-02-26T10:25:54;5.90;99.90
10296;DHT22;5193;51.032;6.356;2024-02-26T10:28:23;6.00;99.90
10296;DHT22;5193;51.032;6.356;2024-02-26T10:30:48;6.00;99.90
10296;DHT22;5193;51.032;6.356;2024-02-26T10:33:14;6.00;99.90
10296;DHT22;5193;51.032;6.356;2024-02-26T10:35:45;6.00;99.90
10296;DHT22;5193;51.032;6.356;2024-02-26T10:38:10;6.10;99.90
10296;DHT22;5193;51.032;6.356;2024-02-26T10:40:36;6.00;99.90
10296;DHT22;5193;51.032;6.356;2024-02-26T10:43:02;6.10;99.90
10296;DHT22;5193;51.032;6.356;2024-02-26T10:45:28;6.20;99.90
10296;DHT22;5193;51.032;6.356;2024-02-26T10:47:53;6.80;99.90
10296;DHT22;5193;51.032;6.356;2024-02-26T10:50:19;6.20;99.90
10296;DHT22;5193;51.032;6.356;2024-02-26T10:52:45;6.20;99.90
10296;DHT22;5193;51.032;6.356;2024-02-26T10:55:15;6.30;99.90
10296;DHT22;5193;51.032;6.356;2024-02-26T10:57:44;6.20;99.90
10296;DHT22;5193;51.032;6.356;2024-02-26T11:00:14;6.40;99.90
10296;DHT22;5193;51.032;6.356;2024-02-26T11:02:41;6.40;99.90
10296;DHT22;5193;51.032;6.356;2024-02-26T11:05:07;6.40;99.90
10296;DHT22;5193;51.032;6.356;2024-02-26T11:07:34;6.60;99.90
10296;DHT22;5193;51.032;6.356;2024-02-26T11:10:03;6.60;99.90
10296;DHT22;5193;51.032;6.356;2024-02-26T11:12:30;6.70;99.90
10296;DHT22;5193;51.032;6.356;2024-02-26T11:14:56;6.70;99.90
10296;DHT22;5193;51.032;6.356;2024-02-26T11:17:27;6.90;99.90
10296;DHT22;5193;51.032;6.356;2024-02-26T11:19:58;7.00;99.90
10296;DHT22;5193;51.032;6.356;2024-02-26T11:22:26;6.90;99.90
10296;DHT22;5193;51.032;6.356;2024-02-26T11:24:53;7.00;99.90
10296;DHT22;5193;51.032;6.356;2024-02-26T11:27:23;7.10;99.90
10296;DHT22;5193;51.032;6.356;2024-02-26T11:29:51;7.20;99.90
10296;DHT22;5193;51.032;6.356;2024-02-26T11:32:17;7.20;99.90
10296;DHT22;5193;51.032;6.356;2024-02-26T11:34:44;7.20;99.90
10296;DHT22;5193;51.032;6.356;2024-02-26T11:37:11;7.20;99.90
10296;DHT22;5193;51.032;6.356;2024-02-26T11:39:39;7.30;99.90
10296;DHT22;5193;51.032;6.356;2024-02-26T11:42:06;7.40;99.90
10296;DHT22;5193;51.032;6.356;2024-02-26T11:44:32;7.40;99.90
10296;DHT22;5193;51.032;6.356;2024-02-26T11:46:57;7.40;99.90
10296;DHT22;5193;51.032;6.356;2024-02-26T11:51:54;7.30;99.90
10296;DHT22;5193;51.032;6.356;2024-02-26T11:54:46;7.50;99.90
10296;DHT22;5193;51.032;6.356;2024-02-26T11:59:53;7.10;99.90
10296;DHT22;5193;51.032;6.356;2024-02-26T12:02:38;7.10;99.90
10296;DHT22;5193;51.032;6.356;2024-02-26T12:05:16;7.00;99.90
10296;DHT22;5193;51.032;6.356;2024-02-26T12:07:44;6.90;99.90
10296;DHT22;5193;51.032;6.356;2024-02-26T12:10:25;6.90;99.90
10296;DHT22;5193;51.032;6.356;2024-02-26T12:13:15;6.90;99.90
10296;DHT22;5193;51.032;6.356;2024-02-26T12:15:57;6.90;99.90
10296;DHT22;5193;51.032;6.356;2024-02-26T12:18:23;6.90;99.90
10296;DHT22;5193;51.032;6.356;2024-02-26T12:21:18;6.80;99.90
10296;DHT22;5193;51.032;6.356;2024-02-26T12:23:44;6.70;99.90
10296;DHT22;5193;51.032;6.356;2024-02-26T12:26:10;6.60;99.90
10296;DHT22;5193;51.032;6.356;2024-02-26T12:28:38;6.60;99.90
10296;DHT22;5193;51.032;6.356;2024-02-26T12:31:04;6.60;99.90
10296;DHT22;5193;51.032;6.356;2024-02-26T12:33:30;6.70;99.90
10296;DHT22;5193;51.032;6.356;2024-02-26T12:35:56;6.70;99.90
10296;DHT22;5193;51.032;6.356;2024-02-26T12:38:21;6.70;99.90
10296;DHT22;5193;51.032;6.356;2024-02-26T12:40:47;6.60;99.90
10296;DHT22;5193;51.032;6.356;2024-02-26T12:43:15;6.70;99.90
10296;DHT22;5193;51.032;6.356;2024-02-26T12:45:41;6.60;99.90
10296;DHT22;5193;51.032;6.356;2024-02-26T12:48:06;6.60;99.90
10296;DHT22;5193;51.032;6.356;2024-02-26T12:50:32;6.60;99.90
10296;DHT22;5193;51.032;6.356;2024-02-26T12:52:58;6.60;99.90
10296;DHT22;5193;51.032;6.356;2024-02-26T12:55:24;6.60;99.90
10296;DHT22;5193;51.032;6.356;2024-02-26T12:57:51;6.70;99.90
10296;DHT22;5193;51.032;6.356;2024-02-26T13:00:24;6.50;99.90
10296;DHT22;5193;51.032;6.356;2024-02-26T13:02:50;6.60;99.90
10296;DHT22;5193;51.032;6.356;2024-02-26T13:05:18;6.50;99.90
10296;DHT22;5193;51.032;6.356;2024-02-26T13:07:45;6.60;99.90
10296;DHT22;5193;51.032;6.356;2024-02-26T13:10:14;6.40;99.90
10296;DHT22;5193;51.032;6.356;2024-02-26T13:12:50;6.50;99.90
10296;DHT22;5193;51.032;6.356;2024-02-26T13:15:22;7.00;99.90
10296;DHT22;5193;51.032;6.356;2024-02-26T13:17:48;6.50;99.90
10296;DHT22;5193;51.032;6.356;2024-02-26T13:20:26;6.30;99.90
10296;DHT22;5193;51.032;6.356;2024-02-26T13:22:59;6.50;99.90
10296;DHT22;5193;51.032;6.356;2024-02-26T13:25:24;6.40;99.90
10296;DHT22;5193;51.032;6.356;2024-02-26T13:27:50;6.50;99.90
10296;DHT22;5193;51.032;6.356;2024-02-26T13:30:15;6.40;99.90
10296;DHT22;5193;51.032;6.356;2024-02-26T13:32:41;6.50;99.90
10296;DHT22;5193;51.032;6.356;2024-02-26T13:35:12;6.50;99.90
10296;DHT22;5193;51.032;6.356;2024-02-26T13:37:42;6.60;99.90
10296;DHT22;5193;51.032;6.356;2024-02-26T13:40:11;6.60;99.90
10296;DHT22;5193;51.032;6.356;2024-02-26T13:42:39;6.60;99.90
10296;DHT22;5193;51.032;6.356;2024-02-26T13:45:06;6.60;99.90
10296;DHT22;5193;51.032;6.356;2024-02-26T13:47:36;6.60;99.90
10296;DHT22;5193;51.032;6.356;2024-02-26T13:50:05;6.60;99.90
10296;DHT22;5193;51.032;6.356;2024-02-26T13:52:31;6.60;99.90
10296;DHT22;5193;51.032;6.356;2024-02-26T13:54:58;6.60;99.90
10296;DHT22;5193;51.032;6.356;2024-02-26T13:57:24;6.60;99.90
10296;DHT22;5193;51.032;6.356;2024-02-26T13:59:50;6.60;99.90
10296;DHT22;5193;51.032;6.356;2024-02-26T14:02:17;6.60;99.90
10296;DHT22;5193;51.032;6.356;2024-02-26T14:04:46;6.60;99.90
10296;DHT22;5193;51.032;6.356;2024-02-26T14:07:12;6.60;99.90
10296;DHT22;5193;51.032;6.356;2024-02-26T14:09:38;6.60;99.90
10296;DHT22;5193;51.032;6.356;2024-02-26T14:12:05;6.60;99.90
10296;DHT22;5193;51.032;6.356;2024-02-26T14:14:32;6.60;99.90
10296;DHT22;5193;51.032;6.356;2024-02-26T14:17:03;6.60;99.90
10296;DHT22;5193;51.032;6.356;2024-02-26T14:19:29;6.50;99.90
10296;DHT22;5193;51.032;6.356;2024-02-26T14:25:17;6.50;99.90
10296;DHT22;5193;51.032;6.356;2024-02-26T14:27:42;6.50;99.90
10296;DHT22;5193;51.032;6.356;2024-02-26T14:30:10;6.50;99.90
10296;DHT22;5193;51.032;6.356;2024-02-26T14:32:36;6.50;99.90
10296;DHT22;5193;51.032;6.356;2024-02-26T14:35:04;6.50;99.90
10296;DHT22;5193;51.032;6.356;2024-02-26T14:37:32;6.50;99.90
10296;DHT22;5193;51.032;6.356;2024-02-26T14:40:05;6.50;99.90
10296;DHT22;5193;51.032;6.356;2024-02-26T14:42:31;6.50;99.90
10296;DHT22;5193;51.032;6.356;2024-02-26T14:45:00;6.60;99.90
10296;DHT22;5193;51.032;6.356;2024-02-26T14:47:32;6.60;99.90
10296;DHT22;5193;51.032;6.356;2024-02-26T14:49:59;6.60;99.90
10296;DHT22;5193;51.032;6.356;2024-02-26T14:52:25;6.60;99.90
10296;DHT22;5193;51.032;6.356;2024-02-26T14:54:53;6.60;99.90
10296;DHT22;5193;51.032;6.356;2024-02-26T14:57:19;6.60;99.90
10296;DHT22;5193;51.032;6.356;2024-02-26T14:59:45;6.70;99.90
10296;DHT22;5193;51.032;6.356;2024-02-26T15:02:10;6.70;99.90
10296;DHT22;5193;51.032;6.356;2024-02-26T15:04:36;6.70;99.90
10296;DHT22;5193;51.032;6.356;2024-02-26T15:07:05;6.70;99.90
10296;DHT22;5193;51.032;6.356;2024-02-26T15:09:31;6.70;99.90
10296;DHT22;5193;51.032;6.356;2024-02-26T15:12:00;6.70;99.90
10296;DHT22;5193;51.032;6.356;2024-02-26T15:14:28;6.70;99.90
10296;DHT22;5193;51.032;6.356;2024-02-26T15:16:54;6.70;99.90
10296;DHT22;5193;51.032;6.356;2024-02-26T15:19:19;6.70;99.90
10296;DHT22;5193;51.032;6.356;2024-02-26T15:21:46;6.70;99.90
10296;DHT22;5193;51.032;6.356;2024-02-26T15:24:12;6.70;99.90
10296;DHT22;5193;51.032;6.356;2024-02-26T15:26:38;6.70;99.90
10296;DHT22;5193;51.032;6.356;2024-02-26T15:29:05;6.70;99.90
10296;DHT22;5193;51.032;6.356;2024-02-26T15:31:32;6.70;99.90
10296;DHT22;5193;51.032;6.356;2024-02-26T15:34:00;6.70;99.90
10296;DHT22;5193;51.032;6.356;2024-02-26T15:36:32;6.70;99.90
10296;DHT22;5193;51.032;6.356;2024-02-26T15:38:57;6.70;99.90
10296;DHT22;5193;51.032;6.356;2024-02-26T15:41:23;6.70;99.90
10296;DHT22;5193;51.032;6.356;2024-02-26T15:43:49;6.70;99.90
10296;DHT22;5193;51.032;6.356;2024-02-26T15:46:15;6.70;99.90
10296;DHT22;5193;51.032;6.356;2024-02-26T15:48:45;6.70;99.90
10296;DHT22;5193;51.032;6.356;2024-02-26T15:51:23;6.70;99.90
10296;DHT22;5193;51.032;6.356;2024-02-26T15:53:51;6.70;99.90
10296;DHT22;5193;51.032;6.356;2024-02-26T15:56:18;6.70;99.90
10296;DHT22;5193;51.032;6.356;2024-02-26T15:58:49;6.60;99.90
10296;DHT22;5193;51.032;6.356;2024-02-26T16:01:18;6.70;99.90
10296;DHT22;5193;51.032;6.356;2024-02-26T16:03:44;6.70;99.90
10296;DHT22;5193;51.032;6.356;2024-02-26T16:08:48;6.70;99.90
10296;DHT22;5193;51.032;6.356;2024-02-26T16:11:14;6.60;99.90
10296;DHT22;5193;51.032;6.356;2024-02-26T16:13:43;6.70;99.90
10296;DHT22;5193;51.032;6.356;2024-02-26T16:16:19;6.60;99.90